sensor_id;sensor_type;location;lat;lon;timestamp;temperature;humidity
42147;DHT22;27815;43.410;11.852;2023-04-03T00:02:29;11.50;58.10
42147;DHT22;27815;43.410;11.852;2023-04-03T00:06:47;11.50;58.10
42147;DHT22;27815;43.410;11.852;2023-04-03T00:11:46;11.50;58.10
42147;DHT22;27815;43.410;11.852;2023-04-03T00:16:46;11.50;58.00
42147;DHT22;27815;43.410;11.852;2023-04-03T00:21:47;11.50;58.10
42147;DHT22;27815;43.410;11.852;2023-04-03T00:31:06;11.50;58.10
42147;DHT22;27815;43.410;11.852;2023-04-03T00:35:24;11.50;58.10
42147;DHT22;27815;43.410;11.852;2023-04-03T00:39:46;11.60;58.10
42147;DHT22;27815;43.410;11.852;2023-04-03T00:49:39;11.60;58.00
42147;DHT22;27815;43.410;11.852;2023-04-03T00:54:16;11.60;57.90
42147;DHT22;27815;43.410;11.852;2023-04-03T00:59:04;11.70;57.80
42147;DHT22;27815;43.410;11.852;2023-04-03T01:03:49;11.60;57.80
42147;DHT22;27815;43.410;11.852;2023-04-03T01:09:11;11.60;57.90
42147;DHT22;27815;43.410;11.852;2023-04-03T01:13:38;11.60;58.00
42147;DHT22;27815;43.410;11.852;2023-04-03T01:18:05;11.60;58.00
42147;DHT22;27815;43.410;11.852;2023-04-03T01:27:32;11.60;58.10
42147;DHT22;27815;43.410;11.852;2023-04-03T01:31:52;11.70;58.10
42147;DHT22;27815;43.410;11.852;2023-04-03T01:36:13;11.60;58.20
42147;DHT22;27815;43.410;11.852;2023-04-03T01:40:34;11.60;58.20
42147;DHT22;27815;43.410;11.852;2023-04-03T01:44:55;11.60;58.20
42147;DHT22;27815;43.410;11.852;2023-04-03T01:49:38;11.60;58.40
42147;DHT22;27815;43.410;11.852;2023-04-03T01:54:01;11.60;58.40
42147;DHT22;27815;43.410;11.852;2023-04-03T01:58:24;11.70;58.50
42147;DHT22;27815;43.410;11.852;2023-04-03T02:03:06;11.60;58.50
42147;DHT22;27815;43.410;11.852;2023-04-03T02:07:47;11.70;58.70
42147;DHT22;27815;43.410;11.852;2023-04-03T02:12:26;11.60;58.60
42147;DHT22;27815;43.410;11.852;2023-04-03T02:16:49;11.60;58.60
42147;DHT22;27815;43.410;11.852;2023-04-03T02:21:07;11.60;58.60
42147;DHT22;27815;43.410;11.852;2023-04-03T02:25:30;11.60;58.60
42147;DHT22;27815;43.410;11.852;2023-04-03T02:30:14;11.60;58.50
42147;DHT22;27815;43.410;11.852;2023-04-03T02:35:38;11.60;58.70
42147;DHT22;27815;43.410;11.852;2023-04-03T02:40:22;11.60;58.60
42147;DHT22;27815;43.410;11.852;2023-04-03T02:44:38;11.50;58.80
42147;DHT22;27815;43.410;11.852;2023-04-03T02:49:03;11.50;58.90
42147;DHT22;27815;43.410;11.852;2023-04-03T02:53:59;11.50;59.00
42147;DHT22;27815;43.410;11.852;2023-04-03T02:58:26;11.50;59.00
42147;DHT22;27815;43.410;11.852;2023-04-03T03:03:15;11.60;59.20
42147;DHT22;27815;43.410;11.852;2023-04-03T03:07:42;11.60;59.30
42147;DHT22;27815;43.410;11.852;2023-04-03T03:12:14;11.60;59.30
42147;DHT22;27815;43.410;11.852;2023-04-03T03:16:32;11.60;59.60
42147;DHT22;27815;43.410;11.852;2023-04-03T03:20:54;11.60;59.60
42147;DHT22;27815;43.410;11.852;2023-04-03T03:25:19;11.70;59.60
42147;DHT22;27815;43.410;11.852;2023-04-03T03:29:38;11.70;59.60
42147;DHT22;27815;43.410;11.852;2023-04-03T03:33:59;11.70;59.90
42147;DHT22;27815;43.410;11.852;2023-04-03T03:38:45;11.70;59.90
42147;DHT22;27815;43.410;11.852;2023-04-03T03:43:03;11.70;59.90
42147;DHT22;27815;43.410;11.852;2023-04-03T03:47:35;11.70;59.80
42147;DHT22;27815;43.410;11.852;2023-04-03T03:51:55;11.70;59.80
42147;DHT22;27815;43.410;11.852;2023-04-03T03:56:33;11.70;59.80
42147;DHT22;27815;43.410;11.852;2023-04-03T04:01:07;11.60;59.80
42147;DHT22;27815;43.410;11.852;2023-04-03T04:05:24;11.60;59.70
42147;DHT22;27815;43.410;11.852;2023-04-03T04:09:43;11.60;59.70
42147;DHT22;27815;43.410;11.852;2023-04-03T04:14:01;11.50;59.70
42147;DHT22;27815;43.410;11.852;2023-04-03T04:18:35;11.50;59.70
42147;DHT22;27815;43.410;11.852;2023-04-03T04:22:55;11.50;59.80
42147;DHT22;27815;43.410;11.852;2023-04-03T04:27:19;11.40;59.80
42147;DHT22;27815;43.410;11.852;2023-04-03T04:31:37;11.40;59.70
42147;DHT22;27815;43.410;11.852;2023-04-03T04:35:59;11.30;60.00
42147;DHT22;27815;43.410;11.852;2023-04-03T05:10:12;11.10;60.00
42147;DHT22;27815;43.410;11.852;2023-04-03T05:14:20;11.10;60.00
42147;DHT22;27815;43.410;11.852;2023-04-03T05:18:45;11.10;60.00
42147;DHT22;27815;43.410;11.852;2023-04-03T05:23:03;11.10;60.00
42147;DHT22;27815;43.410;11.852;2023-04-03T05:27:22;11.10;60.20
42147;DHT22;27815;43.410;11.852;2023-04-03T05:31:56;11.00;60.20
42147;DHT22;27815;43.410;11.852;2023-04-03T05:36:13;10.90;60.50
42147;DHT22;27815;43.410;11.852;2023-04-03T05:40:34;11.00;60.40
42147;DHT22;27815;43.410;11.852;2023-04-03T05:44:59;10.90;60.70
42147;DHT22;27815;43.410;11.852;2023-04-03T05:49:27;10.80;60.90
42147;DHT22;27815;43.410;11.852;2023-04-03T05:54:42;10.80;60.90
42147;DHT22;27815;43.410;11.852;2023-04-03T05:59:11;10.80;61.00
42147;DHT22;27815;43.410;11.852;2023-04-03T06:03:36;10.80;61.00
42147;DHT22;27815;43.410;11.852;2023-04-03T06:08:04;10.90;61.10
42147;DHT22;27815;43.410;11.852;2023-04-03T06:13:16;11.00;61.00
42147;DHT22;27815;43.410;11.852;2023-04-03T06:50:39;11.70;60.50
42147;DHT22;27815;43.410;11.852;2023-04-03T06:55:33;12.00;59.90
42147;DHT22;27815;43.410;11.852;2023-04-03T07:10:37;12.50;58.30
42147;DHT22;27815;43.410;11.852;2023-04-03T07:19:55;13.20;57.30
42147;DHT22;27815;43.410;11.852;2023-04-03T07:24:17;13.50;55.80
42147;DHT22;27815;43.410;11.852;2023-04-03T07:28:37;13.50;55.30
42147;DHT22;27815;43.410;11.852;2023-04-03T07:33:01;13.80;55.20
42147;DHT22;27815;43.410;11.852;2023-04-03T07:37:41;13.90;54.10
42147;DHT22;27815;43.410;11.852;2023-04-03T07:41:48;14.00;54.00
42147;DHT22;27815;43.410;11.852;2023-04-03T07:46:38;14.20;53.90
42147;DHT22;27815;43.410;11.852;2023-04-03T07:51:13;14.50;52.80
42147;DHT22;27815;43.410;11.852;2023-04-03T07:55:56;14.40;50.70
42147;DHT22;27815;43.410;11.852;2023-04-03T08:06:26;14.30;49.20
42147;DHT22;27815;43.410;11.852;2023-04-03T08:11:39;14.50;48.40
42147;DHT22;27815;43.410;11.852;2023-04-03T08:59:34;14.80;42.30
42147;DHT22;27815;43.410;11.852;2023-04-03T09:04:59;14.80;42.00
42147;DHT22;27815;43.410;11.852;2023-04-03T10:57:17;15.40;35.50
42147;DHT22;27815;43.410;11.852;2023-04-03T11:01:28;15.30;35.40
42147;DHT22;27815;43.410;11.852;2023-04-03T11:10:32;15.10;36.10
42147;DHT22;27815;43.410;11.852;2023-04-03T11:15:00;15.00;35.40
42147;DHT22;27815;43.410;11.852;2023-04-03T11:19:45;15.00;34.90
42147;DHT22;27815;43.410;11.852;2023-04-03T13:35:36;14.80;31.80
42147;DHT22;27815;43.410;11.852;2023-04-03T14:22:45;14.60;33.00
42147;DHT22;27815;43.410;11.852;2023-04-03T14:36:57;14.40;32.50
42147;DHT22;27815;43.410;11.852;2023-04-03T14:41:20;14.30;32.30
42147;DHT22;27815;43.410;11.852;2023-04-03T14:45:47;14.30;32.70
42147;DHT22;27815;43.410;11.852;2023-04-03T14:50:06;14.20;32.80
42147;DHT22;27815;43.410;11.852;2023-04-03T14:54:24;14.10;33.40
42147;DHT22;27815;43.410;11.852;2023-04-03T15:38:38;14.00;35.40
42147;DHT22;27815;43.410;11.852;2023-04-03T16:13:24;14.50;36.00
42147;DHT22;27815;43.410;11.852;2023-04-03T16:17:43;14.80;36.10
42147;DHT22;27815;43.410;11.852;2023-04-03T16:21:59;15.00;36.00
42147;DHT22;27815;43.410;11.852;2023-04-03T16:26:19;15.00;36.10
42147;DHT22;27815;43.410;11.852;2023-04-03T16:30:51;14.50;36.30
42147;DHT22;27815;43.410;11.852;2023-04-03T16:35:59;14.20;36.80
42147;DHT22;27815;43.410;11.852;2023-04-03T16:40:36;14.00;37.40
42147;DHT22;27815;43.410;11.852;2023-04-03T16:45:22;13.70;37.90
42147;DHT22;27815;43.410;11.852;2023-04-03T16:49:42;13.80;38.10
42147;DHT22;27815;43.410;11.852;2023-04-03T16:54:00;14.10;38.00
42147;DHT22;27815;43.410;11.852;2023-04-03T16:58:27;14.00;38.20
42147;DHT22;27815;43.410;11.852;2023-04-03T17:02:44;14.40;37.90
42147;DHT22;27815;43.410;11.852;2023-04-03T17:07:02;15.20;37.20
42147;DHT22;27815;43.410;11.852;2023-04-03T17:11:28;15.70;36.50
42147;DHT22;27815;43.410;11.852;2023-04-03T17:15:47;15.60;36.10
42147;DHT22;27815;43.410;11.852;2023-04-03T17:20:06;15.30;36.10
42147;DHT22;27815;43.410;11.852;2023-04-03T17:24:49;14.50;36.40
42147;DHT22;27815;43.410;11.852;2023-04-03T19:50:28;8.80;46.80
42147;DHT22;27815;43.410;11.852;2023-04-03T21:44:34;8.30;47.00
42147;DHT22;27815;43.410;11.852;2023-04-03T21:49:54;8.20;46.90
42147;DHT22;27815;43.410;11.852;2023-04-03T21:54:41;8.20;46.90
42147;DHT22;27815;43.410;11.852;2023-04-03T23:13:14;7.60;47.70
42147;DHT22;27815;43.410;11.852;2023-04-03T23:17:58;7.50;47.70
42147;DHT22;27815;43.410;11.852;2023-04-03T23:22:18;7.50;47.70
42147;DHT22;27815;43.410;11.852;2023-04-03T23:27:05;7.50;47.70
42147;DHT22;27815;43.410;11.852;2023-04-03T23:32:04;7.50;47.80
42147;DHT22;27815;43.410;11.852;2023-04-03T23:46:19;7.30;48.00
42147;DHT22;27815;43.410;11.852;2023-04-03T23:51:03;7.30;48.10
42147;DHT22;27815;43.410;11.852;2023-04-03T23:56:21;7.20;48.10
